East Durham, North Carolina
Current Conditions -  °F | °C
As of 6:51 AM on Monday 24 Nov 2014 (Local Time) from KRDU Reporting Station
Scattered Clouds Scattered Clouds  
Wind Chill: 61°   Ceiling: Unl
Heat Index: 61°   Visibility: 10mi
Dew Point: 57°   Wind: 10mph
Humidity: 87%   Direction: 210°SSW
Pressure: 29.8"   Gusts: NA
Location:  35.9655°N, 78.8009°W
Report Text: KRDU 241151Z 21009KT 10SM FEW006 SCT025 16/14 A2980 RMK AO2 SLP089 70064 T01610139 10183 20161 53009 $
Loading
Personal Weather Stations






























Interactive Weather Map New forecast layout! Learn more

10-Day Weather Forecast

Advertisements
Track Severe Weather on mobile